Time;durP1;ratioP1;P1;durP2;ratioP2;P2;SDS_P1;SDS_P2;PMS_P1;PMS_P2;Temp;Humidity;BMP_temperature;BMP_pressure;BME280_temperature;BME280_humidity;BME280_pressure;Samples;Min_cycle;Max_cycle;Signal;HPM_P1;HPM_P2
2021/07/12 00:01:50;;;;;;;14.23;12.82;;;23.10;66.90;;;;;;5071907;28;20230;-80
2021/07/12 00:04:17;;;;;;;14.52;13.13;;;23.10;66.90;;;;;;5057160;28;20189;-80
2021/07/12 00:06:44;;;;;;;14.32;12.82;;;23.10;67.80;;;;;;5056505;28;20176;-80
2021/07/12 00:09:12;;;;;;;13.88;12.48;;;23.10;67.00;;;;;;5107036;28;20156;-80
2021/07/12 00:11:38;;;;;;;13.85;12.45;;;23.10;66.90;;;;;;5089842;28;20161;-80
2021/07/12 00:14:05;;;;;;;14.95;13.45;;;23.10;66.90;;;;;;5107087;28;20263;-80
2021/07/12 00:16:32;;;;;;;15.10;13.60;;;23.10;67.00;;;;;;5106603;28;20504;-80
2021/07/12 00:18:58;;;;;;;14.65;13.15;;;23.10;66.90;;;;;;5089809;28;20189;-79
2021/07/12 00:21:30;;;;;;;14.20;12.80;;;23.00;66.90;;;;;;5106268;28;20153;-80
2021/07/12 00:24:02;;;;;;;14.18;12.75;;;23.10;66.90;;;;;;5072067;28;20562;-79
2021/07/12 00:26:33;;;;;;;14.30;12.70;;;23.10;67.00;;;;;;5071607;28;20243;-80
2021/07/12 00:29:04;;;;;;;14.07;12.68;;;23.10;67.00;;;;;;5089238;28;20242;-79
2021/07/12 00:31:30;;;;;;;13.93;12.52;;;23.10;67.00;;;;;;5088653;28;20188;-79
2021/07/12 00:33:55;;;;;;;14.05;12.55;;;23.10;67.00;;;;;;5090075;28;20165;-80
2021/07/12 00:36:21;;;;;;;14.23;12.82;;;23.10;67.00;;;;;;5106359;28;20165;-80
2021/07/12 00:38:47;;;;;;;14.18;12.70;;;23.10;67.00;;;;;;5108373;28;20160;-81
2021/07/12 00:41:13;;;;;;;14.20;12.75;;;23.10;67.00;;;;;;5106680;28;20173;-81
2021/07/12 00:43:39;;;;;;;14.48;12.98;;;23.10;67.10;;;;;;5106688;28;20201;-81
2021/07/12 00:46:08;;;;;;;14.13;12.73;;;23.10;67.20;;;;;;5089715;28;20179;-80
2021/07/12 00:48:34;;;;;;;13.77;12.45;;;23.10;67.20;;;;;;5106140;28;20241;-80
2021/07/12 00:51:00;;;;;;;14.10;12.70;;;23.10;67.30;;;;;;5107360;28;20163;-81
2021/07/12 00:53:30;;;;;;;14.13;12.73;;;23.00;67.20;;;;;;5089790;28;20169;-80
2021/07/12 00:55:56;;;;;;;14.52;13.10;;;23.00;67.20;;;;;;5087985;28;20212;-80
2021/07/12 00:58:24;;;;;;;13.63;12.32;;;23.00;67.20;;;;;;5106188;28;20268;-81
2021/07/12 01:00:52;;;;;;;14.70;13.20;;;23.00;67.30;;;;;;5089543;28;20164;-80
2021/07/12 01:03:19;;;;;;;13.52;12.23;;;23.00;67.20;;;;;;5123022;28;20222;-80
2021/07/12 01:05:49;;;;;;;14.50;13.00;;;23.00;68.10;;;;;;5122669;27;20169;-80
2021/07/12 01:08:18;;;;;;;12.93;11.70;;;23.00;67.20;;;;;;5105780;28;20194;-81
2021/07/12 01:11:09;;;;;;;13.82;12.43;;;23.00;67.30;;;;;;5106403;28;20172;-80
2021/07/12 01:13:51;;;;;;;13.48;12.18;;;23.00;67.30;;;;;;5076911;28;20236;-80
2021/07/12 01:16:39;;;;;;;13.32;12.02;;;23.00;67.20;;;;;;5105821;28;20224;-80
2021/07/12 01:19:50;;;;;;;14.68;13.23;;;23.00;67.30;;;;;;5106921;28;20568;-81
2021/07/12 01:22:40;;;;;;;14.43;13.02;;;23.00;67.30;;;;;;5106864;28;20184;-80
2021/07/12 01:25:27;;;;;;;14.05;12.65;;;23.00;67.40;;;;;;5106928;28;20169;-80
2021/07/12 01:28:16;;;;;;;14.35;12.95;;;23.00;67.30;;;;;;5107355;28;20189;-80
2021/07/12 01:31:18;;;;;;;13.98;12.57;;;23.00;67.40;;;;;;5106848;28;20244;-80
2021/07/12 01:33:49;;;;;;;13.82;12.43;;;23.00;67.40;;;;;;5105794;28;20247;-81
2021/07/12 01:36:23;;;;;;;13.63;12.32;;;23.00;67.30;;;;;;5105692;28;20159;-80
2021/07/12 01:39:03;;;;;;;14.07;12.68;;;23.00;67.40;;;;;;5123143;28;20156;-81
2021/07/12 01:41:36;;;;;;;13.93;12.52;;;23.00;67.40;;;;;;5105655;28;20164;-80
2021/07/12 01:44:23;;;;;;;13.77;12.38;;;23.00;67.50;;;;;;5104964;28;20163;-80
2021/07/12 01:47:05;;;;;;;13.07;11.77;;;23.00;67.40;;;;;;5105159;28;20176;-80
2021/07/12 01:49:45;;;;;;;14.25;12.77;;;23.00;67.40;;;;;;5088457;28;20156;-81
2021/07/12 01:52:13;;;;;;;14.65;13.15;;;23.00;67.40;;;;;;5055986;28;20184;-80
2021/07/12 01:54:49;;;;;;;13.60;12.30;;;22.90;67.40;;;;;;5105474;28;20175;-81
2021/07/12 01:57:23;;;;;;;14.07;12.65;;;23.00;67.40;;;;;;5088944;28;20223;-80
2021/07/12 02:00:06;;;;;;;13.77;12.45;;;23.00;67.50;;;;;;5054952;28;20181;-81
2021/07/12 02:02:33;;;;;;;14.45;12.52;;;23.00;67.60;;;;;;5088565;28;20291;-80
2021/07/12 02:05:08;;;;;;;13.73;12.32;;;23.00;67.50;;;;;;5088566;28;20168;-80
2021/07/12 02:07:39;;;;;;;14.18;12.77;;;22.90;67.50;;;;;;5088035;28;20639;-80
2021/07/12 02:10:06;;;;;;;13.75;12.43;;;23.00;67.50;;;;;;5070761;28;20188;-81
2021/07/12 02:12:33;;;;;;;14.48;12.98;;;22.90;67.50;;;;;;5088160;28;20157;-80
2021/07/12 02:14:59;;;;;;;14.07;12.68;;;23.00;67.60;;;;;;5088573;28;20534;-80
2021/07/12 02:17:25;;;;;;;14.00;12.60;;;22.90;67.50;;;;;;5104947;28;20141;-81
2021/07/12 02:19:51;;;;;;;13.50;12.20;;;23.00;67.60;;;;;;5121980;28;20168;-80
2021/07/12 02:22:16;;;;;;;13.68;12.32;;;22.90;67.50;;;;;;5108419;28;20199;-80
2021/07/12 02:24:50;;;;;;;13.77;12.48;;;22.90;67.50;;;;;;5108801;28;20211;-80
2021/07/12 02:27:17;;;;;;;13.90;12.50;;;23.00;67.50;;;;;;5109337;28;20176;-80
2021/07/12 02:29:42;;;;;;;13.25;11.88;;;22.90;67.60;;;;;;5108984;28;20243;-80
2021/07/12 02:32:10;;;;;;;14.25;12.85;;;22.90;67.60;;;;;;5125901;28;20172;-80
2021/07/12 02:34:37;;;;;;;14.25;12.85;;;22.90;67.60;;;;;;5126062;28;20600;-80
2021/07/12 02:37:04;;;;;;;14.02;12.63;;;22.90;67.60;;;;;;5091652;28;20494;-80
2021/07/12 02:39:30;;;;;;;13.77;12.48;;;23.00;67.60;;;;;;5110347;28;20153;-80
2021/07/12 02:42:02;;;;;;;14.18;12.77;;;22.90;67.50;;;;;;5109733;28;20200;-80
2021/07/12 02:44:34;;;;;;;13.00;11.77;;;23.00;67.60;;;;;;5125458;28;20191;-80
2021/07/12 02:47:07;;;;;;;14.13;12.73;;;22.90;67.60;;;;;;5074533;28;20177;-80
2021/07/12 02:49:35;;;;;;;13.80;12.50;;;22.90;67.60;;;;;;5074447;28;20282;-80
2021/07/12 02:52:05;;;;;;;14.10;12.70;;;22.90;67.60;;;;;;5090477;28;20220;-80
2021/07/12 02:54:38;;;;;;;13.77;12.38;;;22.90;67.60;;;;;;5058157;28;20686;-80
2021/07/12 02:57:06;;;;;;;14.45;13.05;;;23.00;67.60;;;;;;5058699;28;20217;-80
2021/07/12 02:59:36;;;;;;;12.80;11.60;;;22.90;67.50;;;;;;5057728;28;20240;-80
2021/07/12 03:02:04;;;;;;;13.65;12.25;;;22.90;67.60;;;;;;5057345;28;20671;-80
2021/07/12 03:04:31;;;;;;;13.27;11.98;;;22.90;67.60;;;;;;5073805;28;20276;-80
2021/07/12 03:07:07;;;;;;;14.50;13.10;;;23.00;67.60;;;;;;5073982;28;20205;-80
2021/07/12 03:09:35;;;;;;;13.30;12.00;;;22.90;67.50;;;;;;5075013;28;20184;-80
2021/07/12 03:12:09;;;;;;;12.93;11.55;;;22.90;67.40;;;;;;5091553;28;20192;-80
2021/07/12 03:14:37;;;;;;;13.63;12.30;;;22.90;67.50;;;;;;5074486;28;20192;-80
2021/07/12 03:17:04;;;;;;;12.75;11.48;;;23.00;67.50;;;;;;5090813;28;20204;-80
2021/07/12 03:19:30;;;;;;;13.75;12.38;;;22.90;67.40;;;;;;5108014;28;20160;-80
2021/07/12 03:22:02;;;;;;;13.50;12.10;;;22.90;67.40;;;;;;5108094;28;20543;-80
2021/07/12 03:24:34;;;;;;;13.65;12.30;;;23.00;67.40;;;;;;5091587;28;20623;-80
2021/07/12 03:27:03;;;;;;;13.40;12.10;;;22.90;67.50;;;;;;5057424;28;20183;-80
2021/07/12 03:29:34;;;;;;;13.35;11.98;;;22.90;67.50;;;;;;5090628;28;20181;-80
2021/07/12 03:32:03;;;;;;;13.57;12.18;;;22.90;67.60;;;;;;5089976;28;20262;-80
2021/07/12 03:34:31;;;;;;;13.60;12.30;;;22.90;67.60;;;;;;5089491;28;20267;-80
2021/07/12 03:37:02;;;;;;;13.60;12.30;;;22.90;67.60;;;;;;5090412;28;20200;-79
2021/07/12 03:39:29;;;;;;;12.90;11.63;;;22.90;67.60;;;;;;5073264;28;20180;-80
2021/07/12 03:41:59;;;;;;;13.60;12.30;;;22.90;67.60;;;;;;5090411;28;20200;-80
2021/07/12 03:44:29;;;;;;;13.38;11.98;;;22.90;67.60;;;;;;5073672;28;20184;-80
2021/07/12 03:47:05;;;;;;;13.20;11.90;;;22.90;67.60;;;;;;5090215;28;20180;-80
2021/07/12 03:49:31;;;;;;;12.48;11.18;;;22.90;67.50;;;;;;5123536;28;20186;-80
2021/07/12 03:51:58;;;;;;;13.02;11.73;;;22.90;67.60;;;;;;5125175;28;20186;-80
2021/07/12 03:54:26;;;;;;;13.70;12.23;;;22.90;67.60;;;;;;5108259;28;20173;-80
2021/07/12 03:56:53;;;;;;;13.63;12.32;;;22.90;67.60;;;;;;5124475;27;20224;-80
2021/07/12 03:59:19;;;;;;;12.38;11.23;;;22.90;67.50;;;;;;5091246;28;20176;-80
2021/07/12 04:01:48;;;;;;;13.45;12.15;;;22.90;67.50;;;;;;5107488;28;20172;-80
2021/07/12 04:04:14;;;;;;;13.77;12.38;;;22.90;67.40;;;;;;5090345;28;20168;-80
2021/07/12 04:06:42;;;;;;;13.88;12.48;;;22.90;67.40;;;;;;5089905;28;20647;-80
2021/07/12 04:09:09;;;;;;;13.35;12.05;;;22.90;67.30;;;;;;5072641;28;20184;-80
2021/07/12 04:11:43;;;;;;;12.88;11.68;;;23.00;67.30;;;;;;5072609;28;20223;-80
2021/07/12 04:14:10;;;;;;;13.73;12.43;;;23.00;67.20;;;;;;5089543;28;20180;-80
2021/07/12 04:16:40;;;;;;;12.05;10.95;;;23.00;67.00;;;;;;5072671;28;20267;-80
2021/07/12 04:19:07;;;;;;;11.30;10.20;;;23.00;66.80;;;;;;5090269;28;20266;-80
2021/07/12 04:21:39;;;;;;;11.80;10.60;;;23.10;66.30;;;;;;5072796;28;20177;-80
2021/07/12 04:24:06;;;;;;;12.25;11.05;;;23.20;66.00;;;;;;5105644;28;20238;-80
2021/07/12 04:26:32;;;;;;;13.02;11.63;;;23.20;65.70;;;;;;5072926;28;20243;-80
2021/07/12 04:29:00;;;;;;;11.40;10.30;;;23.20;66.00;;;;;;5123727;28;20156;-80
2021/07/12 04:31:26;;;;;;;11.73;10.63;;;23.20;65.90;;;;;;5107277;28;20631;-80
2021/07/12 04:33:54;;;;;;;12.02;10.82;;;23.20;65.50;;;;;;5107345;28;20179;-81
2021/07/12 04:36:22;;;;;;;12.75;11.55;;;23.30;65.60;;;;;;5106575;28;20176;-80
2021/07/12 04:38:47;;;;;;;11.45;10.32;;;23.30;65.50;;;;;;5106765;28;20586;-80
2021/07/12 04:41:18;;;;;;;12.60;11.35;;;23.30;65.40;;;;;;5123789;28;20157;-80
2021/07/12 04:43:44;;;;;;;11.73;10.52;;;23.30;65.60;;;;;;5105800;28;20267;-80
2021/07/12 04:46:10;;;;;;;12.45;11.18;;;23.20;65.30;;;;;;5106577;28;20194;-80
2021/07/12 04:48:37;;;;;;;12.10;10.90;;;23.30;65.20;;;;;;5089923;28;20300;-80
2021/07/12 04:51:08;;;;;;;11.32;10.27;;;23.30;65.30;;;;;;5088456;28;20180;-80
2021/07/12 04:53:38;;;;;;;11.70;10.55;;;23.30;64.90;;;;;;5071929;28;20185;-80
2021/07/12 04:56:03;;;;;;;11.95;10.75;;;23.40;64.90;;;;;;5071507;28;20220;-80
2021/07/12 04:58:33;;;;;;;11.55;10.45;;;23.40;64.80;;;;;;5089972;28;20179;-80
2021/07/12 05:01:00;;;;;;;11.48;10.38;;;23.30;64.70;;;;;;5106426;28;20624;-80
2021/07/12 05:03:31;;;;;;;11.07;10.00;;;23.40;64.70;;;;;;5089539;28;20193;-80
2021/07/12 05:05:58;;;;;;;12.85;11.65;;;23.40;64.50;;;;;;5122899;28;20161;-80
2021/07/12 05:08:24;;;;;;;12.40;11.20;;;23.40;64.90;;;;;;5106723;28;20168;-80
2021/07/12 05:10:49;;;;;;;12.88;11.57;;;23.40;64.90;;;;;;5122728;28;20217;-80
2021/07/12 05:13:20;;;;;;;11.77;10.60;;;23.40;64.90;;;;;;5089128;28;20188;-80
2021/07/12 05:15:49;;;;;;;10.85;9.82;;;23.30;64.70;;;;;;5054920;28;20180;-81
2021/07/12 05:18:17;;;;;;;11.65;10.55;;;23.50;64.60;;;;;;5088313;28;20248;-80
2021/07/12 05:20:47;;;;;;;11.93;10.75;;;23.40;64.40;;;;;;5104597;28;20661;-80
2021/07/12 05:23:17;;;;;;;11.35;10.35;;;23.30;64.50;;;;;;5072189;28;20204;-80
2021/07/12 05:25:45;;;;;;;11.73;10.52;;;23.40;64.70;;;;;;5088109;28;20188;-80
2021/07/12 05:28:16;;;;;;;11.15;10.05;;;23.40;64.60;;;;;;5087374;28;20191;-80
2021/07/12 05:30:44;;;;;;;12.73;11.52;;;23.40;64.60;;;;;;5088454;28;20274;-80
2021/07/12 05:33:12;;;;;;;10.80;9.80;;;23.30;64.90;;;;;;5071134;28;20181;-79
2021/07/12 05:35:39;;;;;;;12.23;11.02;;;23.40;65.30;;;;;;5088655;28;20173;-80
2021/07/12 05:38:10;;;;;;;11.73;10.52;;;23.40;64.50;;;;;;5072108;28;20180;-80
2021/07/12 05:40:41;;;;;;;11.57;10.38;;;23.50;64.40;;;;;;5071779;28;20532;-80
2021/07/12 05:43:08;;;;;;;11.32;10.23;;;23.40;64.50;;;;;;5070907;28;20242;-80
2021/07/12 05:45:36;;;;;;;11.23;10.13;;;23.40;64.40;;;;;;5088265;28;20230;-79
2021/07/12 05:48:02;;;;;;;10.98;9.90;;;23.40;64.50;;;;;;5105488;28;20612;-79
2021/07/12 05:50:28;;;;;;;11.38;10.27;;;23.40;64.40;;;;;;5088282;28;20168;-80
2021/07/12 05:52:54;;;;;;;11.43;10.27;;;23.50;64.30;;;;;;5122227;28;20212;-80
2021/07/12 05:55:20;;;;;;;11.57;10.43;;;23.40;64.40;;;;;;5122565;28;20264;-80
2021/07/12 05:57:47;;;;;;;11.32;10.23;;;23.40;64.40;;;;;;5109459;28;20594;-80
2021/07/12 06:00:13;;;;;;;11.73;10.52;;;23.40;64.30;;;;;;5110044;28;20163;-80
2021/07/12 06:02:43;;;;;;;11.30;10.23;;;23.50;64.40;;;;;;5092916;28;20191;-79
2021/07/12 06:05:12;;;;;;;12.15;10.48;;;23.50;64.20;;;;;;5058615;28;20184;-80
2021/07/12 06:07:42;;;;;;;11.05;10.00;;;23.40;64.30;;;;;;5074737;28;20254;-80
2021/07/12 06:10:08;;;;;;;11.35;10.25;;;23.40;64.50;;;;;;5092312;28;20204;-80
2021/07/12 06:12:36;;;;;;;11.55;10.43;;;23.40;64.90;;;;;;5110195;28;20187;-80
2021/07/12 06:15:07;;;;;;;12.05;10.82;;;23.50;65.20;;;;;;5057919;28;20189;-79
2021/07/12 06:17:34;;;;;;;10.95;9.95;;;23.40;65.10;;;;;;5058212;28;20192;-80
2021/07/12 06:20:02;;;;;;;11.23;10.13;;;23.40;65.10;;;;;;5108187;27;20177;-81
2021/07/12 06:22:34;;;;;;;9.95;9.02;;;23.50;64.90;;;;;;5091842;28;20211;-80
2021/07/12 06:25:02;;;;;;;11.23;10.13;;;23.40;65.10;;;;;;5091524;28;20185;-79
2021/07/12 06:27:34;;;;;;;11.18;10.05;;;23.50;65.00;;;;;;5074558;28;20173;-80
2021/07/12 06:30:01;;;;;;;12.18;9.52;;;23.50;64.80;;;;;;5090398;28;20188;-80
2021/07/12 06:32:31;;;;;;;10.63;9.52;;;23.60;64.70;;;;;;5090481;28;20223;-80
2021/07/12 06:35:02;;;;;;;11.32;10.20;;;23.60;64.30;;;;;;5074295;28;20207;-80
2021/07/12 06:37:32;;;;;;;11.32;10.23;;;23.60;64.40;;;;;;5074721;28;20216;-80
2021/07/12 06:39:59;;;;;;;10.60;9.60;;;23.50;64.40;;;;;;5074262;28;20172;-80
2021/07/12 06:42:32;;;;;;;11.27;10.07;;;23.50;64.40;;;;;;5057754;28;20222;-79
2021/07/12 06:45:06;;;;;;;10.88;9.82;;;23.50;64.40;;;;;;5091547;28;20241;-79
2021/07/12 06:47:33;;;;;;;11.48;10.38;;;23.50;64.00;;;;;;5074363;28;20514;-80
2021/07/12 06:50:07;;;;;;;11.45;10.35;;;23.60;64.10;;;;;;5109114;28;20604;-80
2021/07/12 06:52:33;;;;;;;10.40;9.40;;;23.60;64.30;;;;;;5073929;28;20247;-80
2021/07/12 06:55:01;;;;;;;10.98;9.88;;;23.60;64.20;;;;;;5108421;28;20176;-80
2021/07/12 06:57:31;;;;;;;9.80;8.90;;;23.60;63.90;;;;;;5091267;28;20173;-80
2021/07/12 06:59:59;;;;;;;10.50;9.50;;;23.60;64.00;;;;;;5091149;28;20188;-80
2021/07/12 07:02:25;;;;;;;11.05;9.85;;;23.60;63.90;;;;;;5108762;28;20189;-79
2021/07/12 07:04:55;;;;;;;10.02;9.00;;;23.60;63.90;;;;;;5107829;28;20165;-80
2021/07/12 07:07:26;;;;;;;10.90;9.80;;;23.60;63.80;;;;;;5107876;27;20183;-79
2021/07/12 07:09:52;;;;;;;11.20;10.10;;;23.50;63.80;;;;;;5107532;28;20185;-79
2021/07/12 07:12:22;;;;;;;10.82;9.65;;;23.50;63.80;;;;;;5109495;28;20215;-79
2021/07/12 07:14:48;;;;;;;10.55;9.45;;;23.60;64.10;;;;;;5107720;27;20189;-79
2021/07/12 07:17:14;;;;;;;10.30;9.20;;;23.60;64.00;;;;;;5108661;28;20160;-80
2021/07/12 07:19:41;;;;;;;10.38;9.30;;;23.60;64.10;;;;;;5107979;28;20157;-79
2021/07/12 07:22:07;;;;;;;10.70;9.60;;;23.60;64.00;;;;;;5091210;28;20199;-80
2021/07/12 07:24:38;;;;;;;10.27;9.23;;;23.60;63.80;;;;;;5108156;28;20535;-80
2021/07/12 07:27:05;;;;;;;10.73;9.63;;;23.60;63.70;;;;;;5106258;28;20212;-80
2021/07/12 07:29:31;;;;;;;10.23;9.30;;;23.70;63.70;;;;;;5107130;28;20184;-80
2021/07/12 07:31:57;;;;;;;10.52;9.50;;;23.70;63.70;;;;;;5107392;28;20160;-80
2021/07/12 07:34:22;;;;;;;10.50;9.45;;;23.60;63.80;;;;;;5091282;28;20165;-81
2021/07/12 07:36:52;;;;;;;10.38;9.38;;;23.70;63.60;;;;;;5090466;28;20198;-80
2021/07/12 07:39:23;;;;;;;11.93;9.40;;;23.70;63.60;;;;;;5089145;28;20176;-80
2021/07/12 07:41:49;;;;;;;10.77;9.77;;;23.60;63.70;;;;;;5055835;28;20651;-81
2021/07/12 07:44:15;;;;;;;10.27;9.27;;;23.50;63.90;;;;;;5090042;28;20153;-80
2021/07/12 07:46:47;;;;;;;9.88;8.93;;;23.60;63.90;;;;;;5106327;28;20160;-82
2021/07/12 07:49:13;;;;;;;10.85;9.85;;;23.60;63.90;;;;;;5106257;27;20177;-80
2021/07/12 07:51:41;;;;;;;9.93;9.02;;;23.50;63.70;;;;;;5107290;28;20681;-80
2021/07/12 07:54:11;;;;;;;10.73;9.63;;;23.70;63.70;;;;;;5106978;28;20168;-81
2021/07/12 07:56:38;;;;;;;10.45;9.45;;;23.70;63.30;;;;;;5071947;28;20236;-80
2021/07/12 07:59:05;;;;;;;10.23;9.23;;;23.70;63.60;;;;;;5106965;28;20243;-80
2021/07/12 08:01:33;;;;;;;10.32;9.32;;;23.60;63.70;;;;;;5089980;28;20161;-80
2021/07/12 08:04:02;;;;;;;10.13;9.13;;;23.50;63.60;;;;;;5106609;28;20195;-80
2021/07/12 08:06:31;;;;;;;10.52;9.23;;;23.60;63.60;;;;;;5106606;28;20171;-80
2021/07/12 08:09:02;;;;;;;10.65;9.65;;;23.60;63.60;;;;;;5072116;28;20180;-80
2021/07/12 08:11:35;;;;;;;9.85;8.85;;;23.70;63.50;;;;;;5055989;28;20229;-81
2021/07/12 08:14:04;;;;;;;9.93;8.93;;;23.70;64.40;;;;;;5055677;28;20211;-80
2021/07/12 08:16:35;;;;;;;10.02;9.02;;;23.70;63.20;;;;;;5055798;28;20233;-80
2021/07/12 08:19:04;;;;;;;10.40;9.40;;;23.70;63.20;;;;;;5104814;28;20215;-80
2021/07/12 08:21:32;;;;;;;9.90;8.90;;;23.70;63.40;;;;;;5073067;28;20535;-80
2021/07/12 08:24:04;;;;;;;10.20;9.20;;;23.70;63.40;;;;;;5089983;28;20279;-80
2021/07/12 08:26:34;;;;;;;10.20;9.20;;;23.60;63.50;;;;;;5088848;28;20188;-80
2021/07/12 08:29:02;;;;;;;10.23;9.23;;;23.60;63.60;;;;;;5107429;27;20181;-80
2021/07/12 08:31:33;;;;;;;10.20;9.20;;;23.70;63.40;;;;;;5056408;28;20204;-80
2021/07/12 08:34:03;;;;;;;10.13;9.13;;;23.70;63.50;;;;;;5105729;28;20192;-81
2021/07/12 08:36:31;;;;;;;9.80;8.80;;;23.70;63.20;;;;;;5070468;28;20180;-82
2021/07/12 08:38:58;;;;;;;8.90;8.10;;;23.80;63.30;;;;;;5053754;28;20187;-84
2021/07/12 08:41:26;;;;;;;9.65;8.70;;;23.70;63.00;;;;;;5085772;28;20207;-81
2021/07/12 08:43:53;;;;;;;10.02;9.02;;;23.80;63.10;;;;;;5069122;28;20208;-82
2021/07/12 08:46:21;;;;;;;10.00;9.00;;;23.80;64.00;;;;;;5069038;28;20540;-81
2021/07/12 08:48:48;;;;;;;9.85;8.85;;;23.80;62.90;;;;;;5103250;28;20275;-82
2021/07/12 08:51:16;;;;;;;9.57;8.68;;;23.80;62.70;;;;;;5069666;28;20700;-81
2021/07/12 08:53:43;;;;;;;10.23;9.13;;;23.80;62.50;;;;;;5069915;28;20541;-81
2021/07/12 08:56:08;;;;;;;9.48;8.57;;;23.80;62.70;;;;;;5086664;28;20594;-80
2021/07/12 08:58:38;;;;;;;9.55;8.60;;;23.70;62.70;;;;;;5105195;28;20171;-81
2021/07/12 09:01:09;;;;;;;9.68;8.68;;;23.80;62.90;;;;;;5087997;28;20183;-81
2021/07/12 09:03:46;;;;;;;9.82;8.82;;;23.80;62.80;;;;;;5055427;28;20215;-81
2021/07/12 09:06:18;;;;;;;9.68;8.82;;;23.80;62.80;;;;;;5072511;28;20237;-81
2021/07/12 09:08:55;;;;;;;10.10;9.10;;;23.80;62.80;;;;;;5104837;28;20233;-81
2021/07/12 09:11:25;;;;;;;10.00;9.10;;;23.80;63.20;;;;;;5105891;28;20214;-80
2021/07/12 09:14:07;;;;;;;9.45;8.55;;;23.60;63.20;;;;;;5103766;28;20179;-81
2021/07/12 09:16:39;;;;;;;9.75;8.75;;;23.70;63.20;;;;;;5088644;28;20214;-81
2021/07/12 09:19:15;;;;;;;8.63;7.78;;;23.70;63.20;;;;;;5087802;28;20160;-81
2021/07/12 09:21:53;;;;;;;9.82;8.93;;;23.80;62.90;;;;;;5088080;28;20183;-83
2021/07/12 09:24:26;;;;;;;10.18;9.20;;;23.80;62.70;;;;;;5073935;28;20222;-82
2021/07/12 09:27:00;;;;;;;9.00;8.18;;;23.70;62.70;;;;;;5088339;27;20180;-80
2021/07/12 09:29:35;;;;;;;9.23;8.32;;;23.80;62.80;;;;;;5087812;27;20179;-81
2021/07/12 09:32:06;;;;;;;9.45;8.55;;;23.80;62.80;;;;;;5070650;28;20180;-82
2021/07/12 09:34:33;;;;;;;9.90;8.90;;;23.80;62.70;;;;;;5087558;28;20168;-81
2021/07/12 09:36:59;;;;;;;9.75;8.80;;;23.80;62.70;;;;;;5104033;28;20153;-81
2021/07/12 09:39:29;;;;;;;9.55;8.65;;;23.90;62.50;;;;;;5087737;28;20149;-82
2021/07/12 09:42:13;;;;;;;9.63;8.73;;;23.90;62.80;;;;;;5088842;28;20164;-80
2021/07/12 09:44:42;;;;;;;9.27;8.38;;;23.80;63.00;;;;;;5067725;28;20185;-82
2021/07/12 09:47:12;;;;;;;9.90;9.00;;;23.80;63.00;;;;;;5067569;28;20178;-80
2021/07/12 09:49:45;;;;;;;9.43;8.52;;;23.70;63.20;;;;;;5051122;28;20181;-81
2021/07/12 09:52:15;;;;;;;9.18;8.27;;;23.60;63.50;;;;;;5067715;28;20192;-80
2021/07/12 09:54:43;;;;;;;9.40;8.50;;;23.60;63.60;;;;;;5034487;28;20181;-80
2021/07/12 09:57:22;;;;;;;10.18;9.13;;;23.60;63.70;;;;;;5034200;28;20332;-80
2021/07/12 10:00:00;;;;;;;9.60;8.70;;;23.60;63.90;;;;;;5050662;28;20275;-80
2021/07/12 10:02:32;;;;;;;9.80;8.80;;;23.60;63.90;;;;;;5050826;28;20262;-81
2021/07/12 10:05:03;;;;;;;9.55;8.65;;;23.60;63.90;;;;;;5050584;28;20275;-80
2021/07/12 10:07:30;;;;;;;9.50;8.60;;;23.60;63.70;;;;;;5050564;28;20177;-80
2021/07/12 10:10:01;;;;;;;9.60;8.70;;;23.60;63.70;;;;;;5049849;28;20274;-80
2021/07/12 10:12:27;;;;;;;9.70;8.80;;;23.60;63.90;;;;;;5050890;28;20177;-81
2021/07/12 10:14:54;;;;;;;9.52;8.60;;;23.60;64.00;;;;;;5055119;28;20183;-81
2021/07/12 10:17:25;;;;;;;9.13;8.23;;;23.50;63.90;;;;;;5088688;28;20173;-81
2021/07/12 10:19:52;;;;;;;9.20;8.40;;;23.60;64.10;;;;;;5071125;28;20250;-80
2021/07/12 10:22:33;;;;;;;10.15;9.13;;;23.60;64.00;;;;;;5088680;28;20204;-80
2021/07/12 10:25:06;;;;;;;9.65;8.70;;;23.60;64.00;;;;;;5105480;28;20180;-80
2021/07/12 10:27:32;;;;;;;9.05;8.15;;;23.60;64.10;;;;;;5105401;28;20616;-82
2021/07/12 10:29:58;;;;;;;9.45;8.55;;;23.50;64.10;;;;;;5105511;28;20179;-81
2021/07/12 10:32:26;;;;;;;9.27;8.38;;;23.50;64.00;;;;;;5105640;28;20247;-81
2021/07/12 10:34:59;;;;;;;9.73;8.82;;;23.60;64.00;;;;;;5070599;28;20722;-80
2021/07/12 10:37:39;;;;;;;9.00;8.18;;;23.60;63.90;;;;;;5054651;28;20180;-80
2021/07/12 10:40:11;;;;;;;9.40;8.50;;;23.60;63.80;;;;;;5072588;28;20210;-81
2021/07/12 10:42:51;;;;;;;10.07;9.07;;;23.70;63.60;;;;;;5090226;28;20216;-80
2021/07/12 10:45:37;;;;;;;10.13;9.20;;;23.60;64.70;;;;;;5090928;28;20185;-81
2021/07/12 10:48:11;;;;;;;9.25;8.35;;;23.60;63.80;;;;;;5057615;28;20200;-80
2021/07/12 10:50:38;;;;;;;9.52;8.63;;;23.50;63.80;;;;;;5041425;28;20217;-80
2021/07/12 10:53:25;;;;;;;9.07;8.20;;;23.60;64.00;;;;;;5108207;28;20161;-80
2021/07/12 10:56:06;;;;;;;9.35;8.45;;;23.60;63.90;;;;;;5108443;28;20220;-81
2021/07/12 10:58:32;;;;;;;8.82;8.02;;;23.60;64.00;;;;;;5108062;28;20588;-82
2021/07/12 11:01:00;;;;;;;9.98;8.98;;;23.60;63.80;;;;;;5108378;28;20161;-81
2021/07/12 11:03:51;;;;;;;8.98;8.18;;;23.60;63.80;;;;;;5091111;28;20196;-81
2021/07/12 11:06:21;;;;;;;10.05;9.10;;;23.70;63.60;;;;;;5108162;28;20176;-81
2021/07/12 11:08:50;;;;;;;10.23;9.20;;;23.70;63.70;;;;;;5090340;28;20168;-80
2021/07/12 11:11:37;;;;;;;9.52;8.63;;;23.70;63.80;;;;;;5123513;28;20610;-82
2021/07/12 11:14:08;;;;;;;9.80;8.90;;;23.60;63.70;;;;;;5089413;28;20161;-82
2021/07/12 11:16:45;;;;;;;9.63;8.73;;;23.70;64.60;;;;;;5072603;28;20188;-82
2021/07/12 11:19:31;;;;;;;10.20;9.20;;;23.60;63.70;;;;;;5106338;28;20665;-81
2021/07/12 11:22:22;;;;;;;9.65;8.68;;;23.70;63.60;;;;;;5106740;28;20184;-81
2021/07/12 11:25:04;;;;;;;9.48;8.57;;;23.70;63.70;;;;;;5089100;28;20164;-83
2021/07/12 11:27:42;;;;;;;9.73;8.75;;;23.60;63.80;;;;;;5038483;28;20202;-81
2021/07/12 11:30:26;;;;;;;9.63;8.73;;;23.60;63.70;;;;;;5105134;28;20639;-82
2021/07/12 11:32:52;;;;;;;9.23;8.32;;;23.70;63.80;;;;;;5123376;28;20268;-80
2021/07/12 11:35:17;;;;;;;10.00;9.00;;;23.70;63.70;;;;;;5089198;28;20160;-82
2021/07/12 11:37:44;;;;;;;9.13;8.23;;;23.70;63.70;;;;;;5105861;28;20153;-82
2021/07/12 11:40:14;;;;;;;9.45;8.45;;;23.60;63.60;;;;;;5105439;28;20516;-81
2021/07/12 11:42:40;;;;;;;8.75;7.95;;;23.60;63.70;;;;;;5088755;28;20189;-81
2021/07/12 11:45:09;;;;;;;9.70;8.80;;;23.70;63.80;;;;;;5105415;28;20168;-81
2021/07/12 11:47:42;;;;;;;9.00;8.10;;;23.70;63.80;;;;;;5088138;28;20165;-82
2021/07/12 11:50:10;;;;;;;9.82;8.93;;;23.60;63.70;;;;;;5088383;28;20164;-81
2021/07/12 11:52:37;;;;;;;9.55;8.65;;;23.50;63.80;;;;;;5087818;28;20531;-81
2021/07/12 11:55:13;;;;;;;9.40;8.50;;;23.60;63.90;;;;;;5087851;28;20161;-81
2021/07/12 11:57:44;;;;;;;9.35;8.45;;;23.70;63.80;;;;;;5087996;28;20177;-82
2021/07/12 12:00:16;;;;;;;9.02;8.13;;;23.60;63.70;;;;;;5087211;28;20193;-81
2021/07/12 12:02:59;;;;;;;9.25;8.35;;;23.70;63.80;;;;;;5088321;27;20208;-81
2021/07/12 12:05:30;;;;;;;8.88;8.07;;;23.70;63.60;;;;;;5074445;28;20253;-81
2021/07/12 12:08:01;;;;;;;9.50;8.60;;;23.70;63.60;;;;;;5070962;28;20188;-80
2021/07/12 12:10:33;;;;;;;10.07;9.07;;;23.60;63.50;;;;;;5070204;28;20184;-81
2021/07/12 12:13:13;;;;;;;9.38;8.48;;;23.70;63.60;;;;;;5069487;28;20708;-82
2021/07/12 12:15:41;;;;;;;9.35;8.45;;;23.70;63.70;;;;;;5070367;28;20199;-81
2021/07/12 12:18:13;;;;;;;9.15;8.25;;;23.70;63.60;;;;;;5104874;28;20620;-83
2021/07/12 12:20:46;;;;;;;9.10;8.30;;;23.70;63.40;;;;;;5053912;28;20172;-85
2021/07/12 12:23:16;;;;;;;9.85;8.85;;;23.80;63.30;;;;;;5054162;28;20272;-81
2021/07/12 12:26:04;;;;;;;9.75;8.85;;;23.70;63.30;;;;;;5103562;28;20153;-81
2021/07/12 12:28:41;;;;;;;9.27;8.40;;;23.70;63.60;;;;;;5074096;28;20185;-81
2021/07/12 12:31:12;;;;;;;9.50;8.60;;;23.70;63.40;;;;;;5053855;28;20188;-81
2021/07/12 12:33:54;;;;;;;9.48;8.57;;;23.80;63.30;;;;;;5053023;28;20185;-82
2021/07/12 12:36:26;;;;;;;9.63;8.73;;;23.70;63.40;;;;;;5070508;28;20180;-82
2021/07/12 12:38:59;;;;;;;9.48;8.57;;;23.70;63.40;;;;;;5083590;27;20184;-83
2021/07/12 12:41:29;;;;;;;8.68;7.88;;;23.80;63.30;;;;;;5066194;28;20215;-81
2021/07/12 12:44:06;;;;;;;8.98;8.07;;;23.80;62.90;;;;;;5065956;28;20220;-81
2021/07/12 12:46:37;;;;;;;9.02;8.13;;;23.90;62.60;;;;;;5082854;28;20654;-84
2021/07/12 12:49:16;;;;;;;9.40;8.40;;;23.90;62.50;;;;;;5099309;28;20271;-81
2021/07/12 12:51:56;;;;;;;8.82;8.02;;;23.90;62.50;;;;;;5099592;27;20187;-81
2021/07/12 12:54:36;;;;;;;9.13;8.32;;;23.90;62.50;;;;;;5100013;28;20267;-83